หน้าหลัก
METAR-TAF:

METAR-TAF

ท่าอากาศยาน :

Cairns, ออสเตรเลีย

ละติจูด: 16-53S, ลองจิจูด: 145-45E, ความสูง: 3 ม.

การสังเกตสภาพอากาศปัจจุบัน

รายงานได้ทำขึ้นเมื่อ 12 นาทีที่แล้ว ณ เวลา 05:30 UTC
ลม 13 นอตจากตะวันออกเฉียงใต้
อุณหภูมิ 29°C
ความชื้น 55%
ความกดอากาศ 1012 hPa
ทัศนวิสัย 10 กม. หรือมากกว่า
มีเมฆกระจายเป็นบางส่วนที่ความสูง 5400 ฟุต

METAR: YBCS 250530Z AUTO 14013KT 9999 // SCT054 29/19 Q1012 RF00.0/000.0

เวลา: 15:42 (05:42 UTC)

การพยากรณ์

รายงานได้ทำขึ้นเมื่อ 3 ชั่วโมงและ 39 นาทีที่แล้ว ณ เวลา 02:03 UTC
การพยากรณ์มีผลตั้งแต่วันที่ 25 ณ เวลา 03 UTC จนถึงวันที่ 26 ณ เวลา 00 UTC
ลม 14 นอตจากตะวันออกเฉียงใต้
ทัศนวิสัย 10 กม. หรือมากกว่า
มีเมฆกระจายเป็นบางส่วนที่ความสูง 4000 ฟุต
จาก 25 ณ เวลา 0900 UTC
ลม 8 นอตจากใต้
ทัศนวิสัย 10 กม. หรือมากกว่า
มีเมฆกระจายเป็นบางส่วนที่ความสูง 2500 ฟุต
จาก 25 ณ เวลา 2000 UTC
ลม 8 นอตจากใต้
ทัศนวิสัย 10 กม. หรือมากกว่า
มีเมฆกระจายเป็นบางส่วนที่ความสูง 2000 ฟุต
ฝนโปรยปรายเล็กน้อย,

TAF: YBCS 250203Z 2503/2600 13014KT 9999 SCT040 FM250900 17008KT 9999 SCT025 FM252000 17008KT 9999 -SHRA SCT020

สังเกตการณ์สภาพอากาศและพยากรณ์อากาศของสนามบินมากกว่า 4000 แห่ง (รายงาน METAR และ TAF).

สถานีที่ดูได้จะแสดงไว้ด้วยจุดสีเหลืองและสีแดงบนแผนที่.

เลื่อนเมาส์ไปเหนือจุดเพื่อดูชื่อสถานี.

แล้วคลิกเพื่อดูสังเกตการณ์และการพยากรณ์สภาพอากาศ.

ในการเปลี่ยนแผนที่: คลิกที่ปุ่มสีเขียวที่มีกากบาทสีดำเพื่อซูมเข้า; ที่ปุ่มสีเขียวที่มีขีดเพื่อซูมออก; หรือที่ลูกศรสีเขียวเพื่อไปยังแผนที่ที่อยู่ติดกัน.


METAR-TAF: